Hauptseite
METAR-TAF:

METAR-TAF

Flughäfen :

Montichiari

Brescia, Italien

Breite: 45-24-02N, Länge: 010-18-59E, Höhe: 104 m

Beobachtung

Neuester Wetterbericht von vor 1 Stunde und 11 Minuten, um 17:50 UTC
Wind 2 kt aus West/Nordwest
Temperatur 15°C
Luftfeuchtigkeit 59%
Luftdruck 1018 hPa
Sichtweite 10 km oder mehr
keine Wolken unter 1500 m und keine Kumulonimbus oder Gewitterwolken

METAR: LIPO 231750Z 29002KT CAVOK 15/07 Q1018

Zeit: 21:01 (19:01 UTC)

Prognose

Neuester Wetterbericht von vor 2 Stunden und 1 Minuten, um 17:00 UTC
Gültige Prognose vom 23 um 18 UTC bis 24 um 18 UTC
Wind 10 kt aus West/Nordwest
Sichtweite 10 km oder mehr
keine Wolken unter 1500 m und keine Kumulonimbus oder Gewitterwolken
Zeitweise
vom 24 um 09 UTC bis 24 um 18 UTC
Wind 15 kt aus West/Nordwest, Böen bis zu 30 kt

TAF: LIPO 231700Z 2318/2418 29010KT CAVOK TEMPO 2409/2418 29015G30KT

Wetterbeobachtungen und Prognosen von mehr als 4000 Flughäfen (METAR und TAF Bericht).

Die verfügbaren Stationen werden durch gelbe und rote Markierungen auf der Karte dargestellt.

Führen Sie die Maus auf sie, um den Namen der Station zu sehen.

Darauf klicken, um die Beobachtung von Wetterbeobachtungen und Prognosen zu sehen.

Um die Karte zu ändern : klicken Sie auf den grünen Tasten mit einem schwarzen Kreuz Zum Vergrößern, auf den grünen Button mit einem Gedankenstrich zu verkleinern, oder auf die grünen Pfeile für benachbarte Karten.


METAR-TAF: